Terminal Aerodrome Forecast
Issued by NWS Austin/San Antonio, TX

Home | Current Version | Previous Version | Text Only | Print | Product List | Glossary On
Versions: 1 2 3 4 5 6 7 8 9 10 11 12 13 14 15 16 17 18 19
343
FTUS44 KEWX 271407 AAD
TAFDRT
TAF AMD
KDRT 271407Z 2714/2812 06003KT 3SM BR OVC005
     FM271700 34003KT P6SM FEW030
     FM280100 13007KT P6SM SCT250
     FM280500 12009KT P6SM OVC018=

USA.gov is the U.S. government's official web portal to all federal, state and local government web resources and services.